Time;durP1;ratioP1;P1;durP2;ratioP2;P2;SDS_P1;SDS_P2;PMS_P1;PMS_P2;Temp;Humidity;BMP_temperature;BMP_pressure;BME280_temperature;BME280_humidity;BME280_pressure;Samples;Min_cycle;Max_cycle;Signal;HPM_P1;HPM_P2
2021/09/23 00:02:36;;;;;;;3.75;3.13;;;;;;;23.34;37.60;95209.44;5066055;28;20524;-79
2021/09/23 00:05:02;;;;;;;4.03;2.95;;;;;;;23.34;37.91;95208.72;5066025;28;20486;-79
2021/09/23 00:07:27;;;;;;;3.83;3.03;;;;;;;23.34;37.63;95220.34;5066426;28;20119;-79
2021/09/23 00:09:53;;;;;;;4.60;2.95;;;;;;;23.33;37.73;95218.84;5066139;28;20036;-79
2021/09/23 00:12:18;;;;;;;3.65;2.90;;;;;;;23.33;37.78;95212.69;5066201;28;20035;-78
2021/09/23 00:14:44;;;;;;;3.63;2.70;;;;;;;23.33;37.74;95213.41;5065534;28;20033;-77
2021/09/23 00:17:09;;;;;;;3.85;2.97;;;;;;;23.31;37.58;95226.81;5066117;28;20414;-77
2021/09/23 00:19:35;;;;;;;3.72;2.90;;;;;;;23.34;37.91;95220.34;5068912;28;20477;-77
2021/09/23 00:22:00;;;;;;;3.78;2.90;;;;;;;23.33;37.88;95212.69;5086170;28;20481;-79
2021/09/23 00:24:26;;;;;;;3.65;2.80;;;;;;;23.31;37.92;95205.00;5084561;28;20081;-77
2021/09/23 00:26:52;;;;;;;4.00;2.80;;;;;;;23.31;38.00;95210.47;5085581;28;20572;-76
2021/09/23 00:29:17;;;;;;;3.78;2.97;;;;;;;23.31;37.69;95205.00;5052394;28;20119;-77
2021/09/23 00:31:43;;;;;;;4.03;2.95;;;;;;;23.32;37.83;95211.94;5065172;28;20081;-79
2021/09/23 00:34:08;;;;;;;3.70;2.80;;;;;;;23.33;37.98;95201.78;5047770;28;20025;-79
2021/09/23 00:36:34;;;;;;;4.18;3.08;;;;;;;23.34;37.86;95208.72;5065926;28;20108;-77
2021/09/23 00:38:59;;;;;;;3.75;2.90;;;;;;;23.31;38.08;95205.00;5031437;28;20029;-77
2021/09/23 00:41:25;;;;;;;4.63;2.80;;;;;;;23.33;37.77;95202.50;5042965;28;20032;-78
2021/09/23 00:43:50;;;;;;;3.22;2.83;;;;;;;23.32;37.93;95205.72;5065692;28;20387;-78
2021/09/23 00:46:15;;;;;;;3.70;3.00;;;;;;;23.32;38.12;95205.72;5065465;28;20124;-78
2021/09/23 00:48:43;;;;;;;4.30;2.90;;;;;;;23.32;38.65;95211.94;5067533;28;20025;-78
2021/09/23 00:51:09;;;;;;;3.22;2.40;;;;;;;23.30;37.83;95192.63;5074555;28;20012;-78
2021/09/23 00:53:34;;;;;;;3.63;2.72;;;;;;;23.31;38.00;95199.56;5098756;28;20028;-78
2021/09/23 00:55:59;;;;;;;3.40;2.60;;;;;;;23.31;38.26;95204.28;5069902;28;20087;-77
2021/09/23 00:58:25;;;;;;;3.53;2.80;;;;;;;23.32;37.95;95195.59;5069505;28;20055;-77
2021/09/23 01:00:50;;;;;;;2.92;2.50;;;;;;;23.31;38.19;95205.00;5069391;28;20040;-77
2021/09/23 01:03:16;;;;;;;3.28;2.47;;;;;;;23.28;37.82;95206.00;5051454;28;20028;-79
2021/09/23 01:05:42;;;;;;;3.33;2.53;;;;;;;23.30;38.33;95189.88;5050908;28;20048;-79
2021/09/23 01:08:07;;;;;;;3.63;2.58;;;;;;;23.29;38.07;95191.16;5069399;28;20044;-78
2021/09/23 01:10:32;;;;;;;3.75;2.65;;;;;;;23.29;38.01;95185.72;5069126;28;20078;-77
2021/09/23 01:12:58;;;;;;;3.35;2.45;;;;;;;23.30;38.24;95187.16;5068920;28;20028;-77
2021/09/23 01:15:23;;;;;;;2.88;2.53;;;;;;;23.29;38.36;95191.16;5069397;28;20035;-77
2021/09/23 01:17:49;;;;;;;3.50;2.50;;;;;;;23.28;38.33;95188.94;5086053;28;20023;-78
2021/09/23 01:20:15;;;;;;;3.78;2.65;;;;;;;23.28;38.42;95194.38;5068721;28;20025;-77
2021/09/23 01:22:41;;;;;;;2.88;2.10;;;;;;;23.29;38.30;95195.84;5068202;28;20440;-78
2021/09/23 01:25:07;;;;;;;3.28;2.50;;;;;;;23.26;38.06;95186.72;5068764;28;20085;-78
2021/09/23 01:27:33;;;;;;;3.00;2.30;;;;;;;23.27;38.09;95204.53;5069158;28;20016;-78
2021/09/23 01:29:59;;;;;;;2.90;2.13;;;;;;;23.28;38.44;95197.84;5069124;28;20050;-78
2021/09/23 01:32:24;;;;;;;2.60;2.03;;;;;;;23.29;38.37;95191.16;5068472;28;20063;-78
2021/09/23 01:34:50;;;;;;;3.25;2.50;;;;;;;23.29;38.41;95196.59;5069265;28;20660;-78
2021/09/23 01:37:16;;;;;;;2.88;2.20;;;;;;;23.28;38.27;95195.13;5068831;28;20032;-77
2021/09/23 01:39:41;;;;;;;3.28;2.55;;;;;;;23.29;38.38;95202.06;5068614;28;20036;-76
2021/09/23 01:42:07;;;;;;;2.88;2.13;;;;;;;23.28;38.34;95206.00;5068226;28;20024;-77
2021/09/23 01:44:32;;;;;;;2.15;1.85;;;;;;;23.31;38.10;95187.94;5068665;28;20122;-78
2021/09/23 01:46:58;;;;;;;2.42;1.90;;;;;;;23.29;38.37;95202.06;5068436;28;20040;-78
2021/09/23 01:49:23;;;;;;;2.58;2.00;;;;;;;23.27;38.26;95188.16;5068617;28;20461;-78
2021/09/23 01:51:49;;;;;;;2.88;2.00;;;;;;;23.27;38.37;95188.16;5068327;28;20027;-78
2021/09/23 01:54:15;;;;;;;3.15;1.95;;;;;;;23.29;38.42;95195.84;5068182;28;20488;-78
2021/09/23 01:56:40;;;;;;;3.17;2.00;;;;;;;23.25;38.47;95187.94;5068631;28;20709;-78
2021/09/23 01:59:06;;;;;;;2.63;1.95;;;;;;;23.28;38.13;95195.13;5068424;28;20024;-77
2021/09/23 02:01:31;;;;;;;2.92;2.20;;;;;;;23.26;38.12;95186.72;5067551;28;20036;-77
2021/09/23 02:03:56;;;;;;;3.08;1.98;;;;;;;23.28;38.43;95195.13;5067975;28;20058;-77
2021/09/23 02:06:22;;;;;;;2.47;2.00;;;;;;;23.27;38.61;95204.53;5068633;28;20051;-78
2021/09/23 02:08:47;;;;;;;2.60;1.98;;;;;;;23.26;38.55;95192.16;5086604;28;20470;-77
2021/09/23 02:11:14;;;;;;;2.40;1.80;;;;;;;23.26;38.24;95197.59;5088167;28;20032;-77
2021/09/23 02:13:39;;;;;;;2.45;1.90;;;;;;;23.25;38.23;95185.22;5085561;28;20043;-78
2021/09/23 02:16:05;;;;;;;2.97;1.65;;;;;;;23.25;38.22;95185.22;5050675;28;20538;-77
2021/09/23 02:18:30;;;;;;;2.67;1.80;;;;;;;23.28;38.32;95189.66;5068400;28;20560;-78
2021/09/23 02:20:56;;;;;;;2.67;1.88;;;;;;;23.27;38.37;95193.63;5068122;28;20036;-77
2021/09/23 02:23:21;;;;;;;2.58;1.95;;;;;;;23.27;38.18;95182.72;5067628;28;20036;-76
2021/09/23 02:25:47;;;;;;;2.58;1.90;;;;;;;23.26;38.60;95197.59;5068012;28;20476;-78
2021/09/23 02:28:12;;;;;;;3.70;1.95;;;;;;;23.25;38.31;95195.38;5067841;28;20024;-77
2021/09/23 02:30:37;;;;;;;2.30;1.77;;;;;;;23.25;38.21;95189.94;5067980;28;20036;-77
2021/09/23 02:33:03;;;;;;;1.95;1.67;;;;;;;23.26;38.41;95186.72;5032842;28;20699;-78
2021/09/23 02:35:29;;;;;;;2.10;1.63;;;;;;;23.26;38.57;95192.16;5049752;28;20033;-78
2021/09/23 02:37:54;;;;;;;2.58;1.60;;;;;;;23.27;38.49;95188.16;5067280;28;20907;-77
2021/09/23 02:40:20;;;;;;;2.40;1.77;;;;;;;23.27;38.74;95193.63;5049616;28;20033;-77
2021/09/23 02:42:45;;;;;;;2.25;1.60;;;;;;;23.27;38.60;95193.63;5067101;28;20024;-77
2021/09/23 02:45:11;;;;;;;2.15;1.55;;;;;;;23.26;38.36;95197.59;5067595;28;20029;-78
2021/09/23 02:47:37;;;;;;;2.80;2.10;;;;;;;23.23;38.52;95185.00;5067434;28;20021;-77
2021/09/23 02:50:03;;;;;;;2.88;1.60;;;;;;;23.26;38.29;95192.16;5049383;28;20039;-78
2021/09/23 02:52:28;;;;;;;2.63;1.90;;;;;;;23.25;38.40;95193.41;5067185;28;20044;-78
2021/09/23 02:54:54;;;;;;;3.08;1.88;;;;;;;23.22;38.76;95185.50;5067396;28;20185;-77
2021/09/23 02:57:19;;;;;;;3.05;2.00;;;;;;;23.24;38.46;95189.19;5066046;28;20036;-77
2021/09/23 02:59:45;;;;;;;2.25;1.48;;;;;;;23.23;38.54;95187.72;5067179;28;20109;-79
2021/09/23 03:02:11;;;;;;;2.80;1.65;;;;;;;23.25;38.34;95196.13;5076405;28;20034;-77
2021/09/23 03:04:36;;;;;;;2.75;1.75;;;;;;;23.23;38.58;95193.16;5087127;28;20048;-77
2021/09/23 03:07:01;;;;;;;2.15;1.52;;;;;;;23.25;38.63;95196.13;5073704;28;20403;-77
2021/09/23 03:09:27;;;;;;;1.75;1.23;;;;;;;23.24;38.49;95194.63;5067564;28;20509;-77
2021/09/23 03:11:52;;;;;;;2.15;1.55;;;;;;;23.25;38.59;95196.13;5066755;28;20520;-79
2021/09/23 03:14:18;;;;;;;2.00;1.40;;;;;;;23.24;38.48;95193.91;5066861;28;20032;-78
2021/09/23 03:16:43;;;;;;;1.67;1.30;;;;;;;23.25;38.33;95201.56;5067451;28;20036;-77
2021/09/23 03:19:09;;;;;;;1.55;1.20;;;;;;;23.25;38.63;95201.56;5067724;28;20504;-79
2021/09/23 03:21:34;;;;;;;2.22;1.45;;;;;;;23.24;38.76;95194.63;5066831;28;20054;-77
2021/09/23 03:24:00;;;;;;;2.67;1.50;;;;;;;23.24;38.69;95210.97;5066354;28;20028;-77
2021/09/23 03:26:25;;;;;;;2.00;1.60;;;;;;;23.24;38.44;95200.06;5067221;28;20032;-78
2021/09/23 03:28:50;;;;;;;2.20;1.63;;;;;;;23.23;38.41;95193.16;5067020;28;20028;-78
2021/09/23 03:31:16;;;;;;;2.08;1.63;;;;;;;23.26;38.56;95203.06;5066869;28;20016;-78
2021/09/23 03:33:42;;;;;;;2.17;1.52;;;;;;;23.24;38.44;95205.53;5066358;28;20043;-78
2021/09/23 03:36:07;;;;;;;2.13;1.30;;;;;;;23.24;38.65;95205.53;5066534;28;20048;-78
2021/09/23 03:38:32;;;;;;;2.20;1.50;;;;;;;23.25;38.39;95198.84;5066176;28;20013;-78
2021/09/23 03:40:58;;;;;;;2.17;1.50;;;;;;;23.23;38.59;95187.72;5066239;28;20020;-76
2021/09/23 03:43:23;;;;;;;1.58;1.30;;;;;;;23.22;38.61;95186.22;5066443;28;20012;-77
2021/09/23 03:45:49;;;;;;;2.08;1.38;;;;;;;23.20;38.78;95182.50;5066592;28;20029;-78
2021/09/23 03:48:18;;;;;;;3.70;1.33;;;;;;;23.22;38.71;95186.22;5066561;28;20029;-78
2021/09/23 03:50:43;;;;;;;2.22;1.42;;;;;;;23.23;38.69;95182.28;5066629;28;20490;-77
2021/09/23 03:53:09;;;;;;;2.10;1.50;;;;;;;23.24;38.47;95183.72;5066067;28;20073;-79
2021/09/23 03:55:34;;;;;;;2.05;1.30;;;;;;;23.23;38.57;95193.16;5066382;28;20039;-77
2021/09/23 03:57:59;;;;;;;1.92;1.30;;;;;;;23.24;38.47;95194.63;5065873;28;20039;-76
2021/09/23 04:00:26;;;;;;;1.98;1.33;;;;;;;23.25;38.53;95201.56;5066092;28;20033;-77
2021/09/23 04:02:51;;;;;;;1.83;1.55;;;;;;;23.22;38.69;95204.56;5066211;28;20029;-78
2021/09/23 04:05:17;;;;;;;1.70;1.17;;;;;;;23.21;38.84;95216.69;5081620;28;20052;-79
2021/09/23 04:07:42;;;;;;;1.88;1.20;;;;;;;23.21;38.58;95200.34;5081773;28;20036;-79
2021/09/23 04:10:08;;;;;;;1.67;1.27;;;;;;;23.20;38.86;95210.53;5067492;28;20081;-78
2021/09/23 04:12:34;;;;;;;1.77;1.38;;;;;;;23.23;38.63;95203.31;5075181;28;20028;-77
2021/09/23 04:14:59;;;;;;;1.45;1.05;;;;;;;23.24;38.77;95200.06;5076851;28;20028;-76
2021/09/23 04:17:25;;;;;;;1.38;1.20;;;;;;;23.22;38.84;95218.91;5068299;28;20082;-78
2021/09/23 04:19:50;;;;;;;1.55;1.30;;;;;;;23.23;38.61;95214.97;5066934;28;20851;-78
2021/09/23 04:22:16;;;;;;;1.30;1.02;;;;;;;23.20;38.73;95213.25;5047868;28;20031;-79
2021/09/23 04:24:41;;;;;;;1.48;1.02;;;;;;;23.22;38.84;95229.81;5065370;28;20028;-78
2021/09/23 04:27:07;;;;;;;1.60;1.30;;;;;;;23.19;38.88;95211.75;5047738;28;20020;-75
2021/09/23 04:29:32;;;;;;;3.47;1.35;;;;;;;23.21;38.70;95222.88;5059697;28;20481;-78
2021/09/23 04:31:58;;;;;;;3.20;1.40;;;;;;;23.23;38.91;95222.38;5080175;28;20041;-77
2021/09/23 04:34:24;;;;;;;1.60;1.05;;;;;;;23.23;38.93;95220.41;5082455;28;20032;-78
2021/09/23 04:36:49;;;;;;;2.10;1.52;;;;;;;23.29;38.82;95232.03;5083137;28;20509;-76
2021/09/23 04:39:17;;;;;;;1.75;1.30;;;;;;;23.28;39.39;95227.81;5084562;28;20020;-79
2021/09/23 04:41:42;;;;;;;1.80;1.20;;;;;;;23.32;39.23;95239.19;5080337;28;20032;-76
2021/09/23 04:44:08;;;;;;;1.58;1.20;;;;;;;23.34;39.08;95247.59;5080931;28;20055;-80
2021/09/23 04:46:33;;;;;;;2.08;1.45;;;;;;;23.41;39.10;95252.53;5081914;28;20047;-79
2021/09/23 04:49:00;;;;;;;2.42;1.40;;;;;;;23.42;39.00;95259.44;5078309;28;20638;-77
2021/09/23 04:51:26;;;;;;;2.42;1.20;;;;;;;23.54;38.61;95260.88;5082027;28;20035;-78
2021/09/23 04:53:52;;;;;;;3.20;1.98;;;;;;;23.61;38.91;95271.25;5070835;28;20098;-78
2021/09/23 04:56:17;;;;;;;1.85;1.30;;;;;;;23.66;39.08;95268.53;5077840;28;20021;-81
2021/09/23 04:58:43;;;;;;;2.47;1.52;;;;;;;23.75;38.66;95272.91;5072876;28;20036;-78
2021/09/23 05:01:08;;;;;;;1.95;1.20;;;;;;;23.79;38.38;95281.59;5075140;28;20031;-76
2021/09/23 05:03:33;;;;;;;2.28;1.30;;;;;;;23.89;38.87;95286.97;5083097;28;20024;-76
2021/09/23 05:05:59;;;;;;;1.90;1.30;;;;;;;23.92;38.41;95285.94;5081115;28;20048;-75
2021/09/23 05:08:24;;;;;;;2.45;1.50;;;;;;;24.01;38.52;95293.81;5081473;28;20494;-75
2021/09/23 05:10:50;;;;;;;2.28;1.42;;;;;;;24.07;38.38;95297.25;5083159;28;20081;-75
2021/09/23 05:13:16;;;;;;;1.65;1.35;;;;;;;24.15;37.88;95292.72;5083651;28;20051;-76
2021/09/23 05:15:42;;;;;;;5.63;4.28;;;;;;;24.20;37.97;95300.16;5084714;28;20149;-77
2021/09/23 05:18:08;;;;;;;1.63;1.33;;;;;;;24.26;38.03;95295.38;5078986;28;20035;-76
2021/09/23 05:20:33;;;;;;;1.50;1.17;;;;;;;24.36;37.73;95302.03;5082717;28;20020;-75
2021/09/23 05:22:59;;;;;;;2.22;1.45;;;;;;;24.40;37.70;95303.22;5097472;28;20032;-78
2021/09/23 05:25:27;;;;;;;1.92;1.40;;;;;;;24.47;37.62;95308.16;5083918;28;20020;-74
2021/09/23 05:27:53;;;;;;;2.88;1.40;;;;;;;24.55;37.27;95313.78;5082130;28;20051;-77
2021/09/23 05:30:18;;;;;;;2.00;1.30;;;;;;;24.61;40.82;95306.28;5077217;28;20028;-74
2021/09/23 05:32:44;;;;;;;2.40;1.30;;;;;;;24.62;39.32;95302.28;5076423;28;20047;-79
2021/09/23 05:35:09;;;;;;;2.63;1.48;;;;;;;24.76;39.59;95312.13;5074216;28;20032;-78
2021/09/23 05:37:35;;;;;;;2.03;1.30;;;;;;;24.81;38.19;95314.03;5071668;28;20654;-78
2021/09/23 05:40:00;;;;;;;2.13;1.23;;;;;;;24.82;39.65;95311.53;5074247;28;20052;-78
2021/09/23 05:42:26;;;;;;;1.90;1.33;;;;;;;24.89;38.37;95316.44;5068762;28;20481;-78
2021/09/23 05:44:51;;;;;;;2.17;1.40;;;;;;;24.85;38.02;95315.97;5069512;28;20080;-80
2021/09/23 05:47:17;;;;;;;2.00;1.40;;;;;;;24.88;38.02;95325.88;5084681;28;20028;-84
2021/09/23 05:49:42;;;;;;;1.75;1.20;;;;;;;24.93;37.64;95321.59;5070263;28;20039;-77
2021/09/23 05:52:08;;;;;;;1.95;1.40;;;;;;;24.95;38.15;95319.84;5069462;28;20078;-80
2021/09/23 05:54:33;;;;;;;3.38;1.25;;;;;;;24.97;37.47;95327.53;5050881;28;20054;-76
2021/09/23 05:56:59;;;;;;;2.22;1.50;;;;;;;25.02;37.57;95330.25;5052033;28;20035;-79
2021/09/23 05:59:26;;;;;;;1.92;1.20;;;;;;;25.07;37.59;95343.13;5069605;28;20746;-76
2021/09/23 06:01:54;;;;;;;7.15;2.47;;;;;;;25.17;37.53;95325.13;5078216;28;20085;-78
2021/09/23 06:04:20;;;;;;;2.33;1.50;;;;;;;25.18;37.00;95359.41;5085466;28;20041;-79
2021/09/23 06:06:46;;;;;;;2.33;1.48;;;;;;;25.25;36.75;95347.16;5097699;28;20016;-78
2021/09/23 06:09:11;;;;;;;2.58;1.45;;;;;;;25.30;36.34;95344.34;5055264;28;20518;-78
2021/09/23 06:11:39;;;;;;;2.90;1.60;;;;;;;25.26;36.93;95349.38;5076752;28;20016;-78
2021/09/23 06:14:04;;;;;;;3.05;1.80;;;;;;;25.32;36.26;95336.41;5094899;28;20479;-77
2021/09/23 06:16:30;;;;;;;5.45;1.98;;;;;;;25.31;35.97;95339.66;5098492;28;20024;-78
2021/09/23 06:18:55;;;;;;;5.78;2.30;;;;;;;25.37;36.39;95346.53;5085261;28;20092;-77
2021/09/23 06:21:21;;;;;;;5.20;2.10;;;;;;;25.34;36.40;95347.56;5085376;28;20024;-76
2021/09/23 06:23:46;;;;;;;5.22;2.08;;;;;;;25.30;36.20;95343.63;5081618;28;20017;-80
2021/09/23 06:26:11;;;;;;;4.88;1.88;;;;;;;25.30;36.23;95349.81;5086647;28;20383;-80
2021/09/23 06:28:37;;;;;;;5.68;2.28;;;;;;;25.30;35.98;95349.09;5081944;28;20110;-79
2021/09/23 06:31:03;;;;;;;6.85;3.10;;;;;;;25.37;36.10;95343.78;5098834;28;20100;-79
2021/09/23 06:33:28;;;;;;;5.68;2.28;;;;;;;25.37;35.96;95343.78;5087481;28;20031;-80
2021/09/23 06:35:54;;;;;;;5.50;2.03;;;;;;;25.40;35.62;95359.16;5089740;28;20032;-79
2021/09/23 06:38:20;;;;;;;3.63;2.15;;;;;;;25.45;35.91;95355.63;5073029;28;20059;-78
2021/09/23 06:40:45;;;;;;;4.50;2.10;;;;;;;25.43;36.20;95358.13;5081644;28;20387;-79
2021/09/23 06:43:11;;;;;;;7.75;2.25;;;;;;;25.45;36.25;95358.34;5070633;28;20024;-78
2021/09/23 06:45:36;;;;;;;6.43;2.20;;;;;;;25.45;36.02;95355.63;5079987;28;20025;-79
2021/09/23 06:48:02;;;;;;;5.50;2.25;;;;;;;25.46;36.32;95362.59;5058766;28;20032;-77
2021/09/23 06:50:27;;;;;;;6.00;2.30;;;;;;;25.48;35.85;95355.31;5090785;28;20023;-77
2021/09/23 06:52:53;;;;;;;8.48;2.40;;;;;;;25.48;36.07;95362.81;5092534;28;20019;-79
2021/09/23 06:55:18;;;;;;;6.75;2.28;;;;;;;25.53;36.00;95372.94;5092833;28;20566;-79
2021/09/23 06:57:44;;;;;;;3.92;2.08;;;;;;;25.58;35.94;95363.94;5105062;28;20034;-80
2021/09/23 07:00:09;;;;;;;5.03;2.30;;;;;;;25.61;35.60;95357.44;5082636;28;20098;-80
2021/09/23 07:02:35;;;;;;;4.75;2.38;;;;;;;25.63;35.53;95360.38;5100189;28;20043;-80
2021/09/23 07:05:00;;;;;;;5.35;2.40;;;;;;;25.70;35.80;95365.31;5084209;28;20074;-83
2021/09/23 07:07:26;;;;;;;6.07;2.58;;;;;;;25.76;35.94;95368.72;5072307;28;20025;-75
2021/09/23 07:09:51;;;;;;;8.68;2.65;;;;;;;25.75;36.24;95378.91;5071999;28;20032;-78
2021/09/23 07:12:17;;;;;;;7.55;2.65;;;;;;;25.79;35.80;95373.16;5072523;28;20382;-84
2021/09/23 07:14:42;;;;;;;4.55;2.35;;;;;;;25.76;36.06;95374.19;5072264;28;20642;-76
2021/09/23 07:17:08;;;;;;;7.32;2.63;;;;;;;25.72;35.92;95379.94;5071956;28;20028;-75
2021/09/23 07:19:33;;;;;;;4.95;2.20;;;;;;;25.68;36.08;95374.03;5083673;28;20025;-76
2021/09/23 07:21:59;;;;;;;4.70;2.85;;;;;;;25.63;36.19;95371.31;5083541;28;20040;-73
2021/09/23 07:24:24;;;;;;;6.72;2.63;;;;;;;25.72;36.11;95373.75;5093375;28;20031;-77
2021/09/23 07:26:50;;;;;;;4.57;2.40;;;;;;;25.65;36.65;95368.84;5073923;28;20454;-78
2021/09/23 07:29:16;;;;;;;5.85;2.38;;;;;;;25.58;36.35;95363.94;5081285;28;20037;-79
2021/09/23 07:31:42;;;;;;;6.90;2.38;;;;;;;25.54;36.67;95363.47;5061835;28;20024;-79
2021/09/23 07:34:08;;;;;;;9.45;2.65;;;;;;;25.42;36.85;95351.91;5083708;28;20039;-79
2021/09/23 07:36:34;;;;;;;6.97;2.83;;;;;;;25.41;37.01;95361.38;5089214;28;20046;-80
2021/09/23 07:38:59;;;;;;;5.45;2.40;;;;;;;25.35;37.03;95368.91;5100617;28;20032;-79
2021/09/23 07:41:25;;;;;;;7.28;2.88;;;;;;;25.31;37.77;95351.31;5078618;28;20033;-78
2021/09/23 07:43:50;;;;;;;6.10;3.17;;;;;;;25.25;37.91;95353.38;5068549;28;20020;-79
2021/09/23 07:46:16;;;;;;;5.85;3.15;;;;;;;25.24;38.26;95357.34;5084528;28;20561;-80
2021/09/23 07:48:41;;;;;;;5.50;2.90;;;;;;;25.14;37.96;95348.03;5096321;28;20024;-78
2021/09/23 07:51:06;;;;;;;5.72;2.50;;;;;;;25.10;38.25;95346.81;5084309;28;20226;-79
2021/09/23 07:53:32;;;;;;;6.32;2.88;;;;;;;25.09;38.26;95339.88;5083599;28;20482;-78
2021/09/23 07:55:58;;;;;;;4.50;3.08;;;;;;;25.07;38.51;95348.59;5080200;28;20016;-78
2021/09/23 07:58:24;;;;;;;5.50;2.53;;;;;;;25.01;38.52;95334.22;5059611;28;20028;-81
2021/09/23 08:00:49;;;;;;;5.43;2.80;;;;;;;24.99;39.10;95331.28;5068679;28;20031;-78
2021/09/23 08:03:15;;;;;;;4.85;2.67;;;;;;;24.91;39.01;95335.78;5068137;28;20039;-79
2021/09/23 08:05:40;;;;;;;4.50;2.75;;;;;;;24.92;38.76;95342.75;5075711;28;20423;-78
2021/09/23 08:08:08;;;;;;;6.05;2.72;;;;;;;24.88;39.59;95347.72;5056236;28;20508;-80
2021/09/23 08:10:34;;;;;;;6.93;3.00;;;;;;;24.88;39.07;95353.19;5071350;28;20039;-80
2021/09/23 08:13:00;;;;;;;5.45;2.72;;;;;;;24.83;39.05;95348.53;5072317;28;20071;-79
2021/09/23 08:15:25;;;;;;;4.47;2.95;;;;;;;24.78;39.29;95347.84;5073239;28;20036;-80
2021/09/23 08:17:50;;;;;;;7.45;2.95;;;;;;;24.77;39.12;95347.13;5073764;28;20047;-79
2021/09/23 08:20:16;;;;;;;5.15;2.70;;;;;;;24.78;39.37;95347.84;5052938;28;20028;-81
2021/09/23 08:22:41;;;;;;;5.15;2.60;;;;;;;24.74;39.36;95347.38;5069517;28;20118;-79
2021/09/23 08:25:07;;;;;;;6.47;3.38;;;;;;;24.71;39.94;95353.84;5068883;28;20028;-79
2021/09/23 08:27:33;;;;;;;7.30;2.75;;;;;;;24.67;39.99;95358.88;5070167;28;20772;-80
2021/09/23 08:29:58;;;;;;;8.88;3.00;;;;;;;24.66;39.61;95363.56;5062304;28;20188;-79
2021/09/23 08:32:24;;;;;;;5.53;2.70;;;;;;;24.66;39.56;95365.56;5071342;28;20031;-80
2021/09/23 08:34:50;;;;;;;5.50;2.97;;;;;;;24.64;39.73;95354.44;5069634;28;20039;-78
2021/09/23 08:37:16;;;;;;;7.28;2.67;;;;;;;24.61;40.49;95360.91;5073197;28;20108;-78
2021/09/23 08:39:41;;;;;;;8.45;4.13;;;;;;;24.60;39.92;95348.50;5060684;28;20031;-77
2021/09/23 08:42:07;;;;;;;6.25;2.85;;;;;;;24.60;39.57;95359.41;5090170;28;20028;-78
2021/09/23 08:44:33;;;;;;;5.47;2.90;;;;;;;24.55;40.24;95358.22;5066734;28;20426;-78
2021/09/23 08:46:59;;;;;;;6.15;2.72;;;;;;;24.59;40.35;95357.94;5067557;28;20028;-79
2021/09/23 08:49:24;;;;;;;5.32;2.60;;;;;;;24.56;39.81;95353.50;5070947;28;20033;-78
2021/09/23 08:51:50;;;;;;;6.22;3.47;;;;;;;24.51;40.08;95346.09;5068087;28;20016;-79
2021/09/23 08:54:17;;;;;;;5.53;2.53;;;;;;;24.59;40.19;95352.50;5065600;28;20029;-78
2021/09/23 08:56:43;;;;;;;6.97;3.25;;;;;;;24.57;40.43;95344.03;5065305;28;20561;-78
2021/09/23 08:59:09;;;;;;;14.18;8.35;;;;;;;24.57;40.41;95341.31;5065156;28;20031;-81
2021/09/23 09:01:40;;;;;;;1285.63;934.65;;;;;;;24.54;40.82;95345.06;5066638;28;20038;-81
2021/09/23 09:04:05;;;;;;;6.72;2.72;;;;;;;24.55;41.02;95346.56;5065099;28;20085;-78
2021/09/23 09:06:31;;;;;;;7.43;2.97;;;;;;;24.55;41.71;95341.09;5065406;28;20024;-80
2021/09/23 09:08:56;;;;;;;7.25;2.83;;;;;;;24.57;41.40;95354.97;5065946;28;20036;-78
2021/09/23 09:11:22;;;;;;;7.88;2.88;;;;;;;24.59;41.02;95341.56;5050685;28;20409;-83
2021/09/23 09:13:49;;;;;;;4.18;2.20;;;;;;;24.64;40.13;95365.34;5053752;28;20024;-77
2021/09/23 09:16:26;;;;;;;6.60;3.47;;;;;;;24.71;41.18;95353.84;5055364;28;20063;-77
2021/09/23 09:18:53;;;;;;;4.72;2.83;;;;;;;24.77;40.58;95354.53;5072428;28;20040;-83
2021/09/23 09:21:20;;;;;;;5.88;3.15;;;;;;;24.82;40.32;95349.78;5072928;28;20032;-80
2021/09/23 09:23:50;;;;;;;5.65;2.67;;;;;;;24.91;40.71;95351.44;5069916;28;20039;-81
2021/09/23 09:26:43;;;;;;;3.50;2.45;;;;;;;24.99;40.05;95346.91;5058390;28;20755;-79
2021/09/23 09:29:10;;;;;;;5.95;3.00;;;;;;;25.10;40.31;95353.03;5067780;28;20039;-80
2021/09/23 09:31:36;;;;;;;4.78;2.60;;;;;;;25.17;40.14;95363.41;5067868;28;20074;-76
2021/09/23 09:34:04;;;;;;;6.50;2.72;;;;;;;25.27;39.67;95353.59;5057483;28;20028;-78
2021/09/23 09:36:40;;;;;;;5.28;2.90;;;;;;;25.32;39.82;95347.34;5033879;28;20056;-79
2021/09/23 09:39:06;;;;;;;11.45;3.40;;;;;;;25.38;39.80;95339.78;5051286;28;20379;-78
2021/09/23 09:41:34;;;;;;;9.00;3.83;;;;;;;25.47;40.07;95342.16;5068285;28;20028;-80
2021/09/23 09:44:01;;;;;;;9.18;4.07;;;;;;;25.55;39.52;95337.63;5053003;28;20375;-81
2021/09/23 09:46:32;;;;;;;8.38;4.32;;;;;;;25.65;39.30;95341.47;5068547;28;20040;-80
2021/09/23 09:48:57;;;;;;;7.65;4.20;;;;;;;25.71;39.72;95333.94;5068434;28;20068;-79
2021/09/23 09:51:42;;;;;;;7.18;4.00;;;;;;;25.76;39.63;95341.38;5070334;28;20042;-79
2021/09/23 09:54:09;;;;;;;7.80;4.32;;;;;;;25.79;39.40;95329.38;5068450;28;20025;-78
2021/09/23 09:56:36;;;;;;;6.22;3.58;;;;;;;25.84;38.99;95321.84;5049802;28;20127;-78
2021/09/23 09:59:17;;;;;;;5.63;3.80;;;;;;;25.92;39.69;95330.94;5067981;28;20024;-80
2021/09/23 10:01:48;;;;;;;5.40;3.60;;;;;;;25.99;38.26;95338.56;5067592;28;20793;-80
2021/09/23 10:04:13;;;;;;;5.55;3.28;;;;;;;26.05;38.36;95331.00;5068459;28;20059;-81
2021/09/23 10:06:39;;;;;;;6.38;3.10;;;;;;;26.23;39.13;95324.75;5068739;28;20486;-81
2021/09/23 10:09:08;;;;;;;6.13;3.47;;;;;;;26.28;37.30;95326.72;5068839;28;20165;-76
2021/09/23 10:11:34;;;;;;;6.18;3.22;;;;;;;26.23;36.82;95319.28;5070802;28;20013;-81
2021/09/23 10:14:00;;;;;;;4.93;2.90;;;;;;;26.33;36.87;95328.63;5051970;28;20060;-80
2021/09/23 10:16:26;;;;;;;6.07;3.10;;;;;;;26.36;36.76;95311.88;5052884;28;20035;-79
2021/09/23 10:18:52;;;;;;;4.72;3.15;;;;;;;26.39;36.88;95315.59;5070339;28;20143;-84
2021/09/23 10:21:17;;;;;;;4.82;2.92;;;;;;;26.38;37.07;95325.06;5053395;28;20024;-86
2021/09/23 10:23:44;;;;;;;4.57;3.25;;;;;;;26.41;37.38;95315.78;5074628;28;20597;-81
2021/09/23 10:26:10;;;;;;;6.05;3.25;;;;;;;26.44;37.33;95317.47;5079593;28;20028;-78
2021/09/23 10:28:36;;;;;;;5.28;2.95;;;;;;;26.43;37.47;95316.03;5070452;28;20425;-79
2021/09/23 10:31:04;;;;;;;4.88;2.95;;;;;;;26.48;36.88;95317.94;5038305;28;20032;-78
2021/09/23 10:33:29;;;;;;;4.35;3.40;;;;;;;26.51;37.60;95317.63;5051092;28;20031;-77
2021/09/23 10:35:55;;;;;;;4.30;2.80;;;;;;;26.50;37.43;95298.97;5050258;28;20029;-82
2021/09/23 10:38:20;;;;;;;6.00;3.05;;;;;;;26.63;37.19;95307.22;5086938;28;20024;-83
2021/09/23 10:40:47;;;;;;;4.55;2.47;;;;;;;26.60;37.03;95316.50;5067089;28;20032;-85
2021/09/23 10:43:16;;;;;;;4.28;2.58;;;;;;;26.65;37.28;95310.16;5049248;28;20031;-80
2021/09/23 10:45:42;;;;;;;5.00;3.33;;;;;;;26.67;36.88;95318.63;5059149;28;20174;-74
2021/09/23 10:48:08;;;;;;;5.47;2.60;;;;;;;26.73;36.70;95300.09;5072273;28;20505;-79
2021/09/23 10:50:34;;;;;;;4.72;2.47;;;;;;;26.72;36.62;95312.31;5090330;28;20012;-82
2021/09/23 10:53:00;;;;;;;3.88;2.45;;;;;;;26.75;36.54;95314.72;5071209;28;20094;-76
2021/09/23 10:55:27;;;;;;;4.35;2.85;;;;;;;26.79;36.91;95321.38;5069770;28;20036;-79
2021/09/23 10:57:53;;;;;;;5.15;2.63;;;;;;;26.74;37.24;95318.00;5071229;28;20024;-79
2021/09/23 11:00:24;;;;;;;3.47;2.53;;;;;;;26.76;37.00;95315.47;5069456;28;20025;-80
2021/09/23 11:02:51;;;;;;;3.33;2.25;;;;;;;26.77;37.03;95318.44;5069821;28;20025;-77
2021/09/23 11:05:17;;;;;;;4.50;2.50;;;;;;;26.78;37.53;95308.94;5053373;28;20097;-79
2021/09/23 11:07:43;;;;;;;4.57;2.10;;;;;;;26.80;37.20;95306.41;5069870;28;20033;-79
2021/09/23 11:10:19;;;;;;;3.63;2.33;;;;;;;26.75;37.49;95300.28;5069948;28;20477;-79
2021/09/23 11:12:48;;;;;;;4.90;2.20;;;;;;;26.78;37.45;95308.94;5067164;28;20082;-77
2021/09/23 11:15:14;;;;;;;3.67;2.72;;;;;;;26.76;37.58;95310.72;5062080;28;20024;-79
2021/09/23 11:17:40;;;;;;;4.07;2.63;;;;;;;26.75;37.57;95308.50;5070387;28;20027;-77
2021/09/23 11:20:10;;;;;;;3.72;2.20;;;;;;;26.74;37.91;95307.78;5074066;28;20023;-77
2021/09/23 11:22:53;;;;;;;3.45;2.17;;;;;;;26.61;38.07;95309.75;5068979;28;20246;-78
2021/09/23 11:25:23;;;;;;;4.22;2.20;;;;;;;26.59;37.88;95301.31;5067959;28;20115;-77
2021/09/23 11:27:48;;;;;;;;;;;;;;;26.52;38.24;95307.41;5071052;28;20155;-78
2021/09/23 11:30:24;;;;;;;5.57;2.30;;;;;;;26.46;38.46;95298.53;5052501;28;20015;-78